Time;durP1;ratioP1;P1;durP2;ratioP2;P2;SDS_P1;SDS_P2;PMS_P1;PMS_P2;Temp;Humidity;BMP_temperature;BMP_pressure;BME280_temperature;BME280_humidity;BME280_pressure;Samples;Min_cycle;Max_cycle;Signal;HPM_P1;HPM_P2
2024/01/23 10:11:42;;;;;;;31.70;5.57;;;7.80;99.90;;;;;;5089781;27;20943;-62
2024/01/23 10:14:09;;;;;;;32.97;5.32;;;8.00;99.90;;;;;;4868458;28;20042;-62
2024/01/23 10:16:39;;;;;;;26.58;5.07;;;8.00;99.90;;;;;;5049172;28;20049;-63
2024/01/23 10:19:09;;;;;;;32.67;5.70;;;7.90;99.90;;;;;;5053670;28;20048;-63
2024/01/23 10:21:34;;;;;;;33.28;5.07;;;7.90;99.90;;;;;;4960279;28;20053;-63
2024/01/23 10:24:00;;;;;;;27.00;5.20;;;8.00;99.90;;;;;;5053779;28;20036;-62
2024/01/23 10:26:26;;;;;;;26.83;4.43;;;8.00;99.90;;;;;;5054058;28;20064;-63
2024/01/23 10:28:52;;;;;;;24.15;4.90;;;7.90;99.90;;;;;;5049366;28;20586;-62
2024/01/23 10:31:17;;;;;;;25.85;4.75;;;7.90;99.90;;;;;;5051044;28;20132;-63
2024/01/23 10:33:43;;;;;;;25.13;4.43;;;7.90;99.90;;;;;;5055864;28;20104;-62
2024/01/23 10:36:09;;;;;;;27.10;5.13;;;8.00;99.90;;;;;;5056297;28;20040;-63
2024/01/23 10:38:36;;;;;;;30.40;6.25;;;7.90;99.90;;;;;;5047549;28;20049;-63
2024/01/23 10:41:05;;;;;;;29.23;5.13;;;7.90;99.90;;;;;;5053102;28;20381;-63
2024/01/23 10:43:31;;;;;;;29.02;6.03;;;8.00;99.90;;;;;;5050694;28;20120;-63
2024/01/23 10:45:58;;;;;;;25.45;5.07;;;8.00;99.90;;;;;;5053724;28;20140;-62
2024/01/23 10:48:25;;;;;;;24.05;4.82;;;8.00;99.90;;;;;;5046704;28;20114;-62
2024/01/23 10:50:56;;;;;;;20.35;3.72;;;8.00;99.90;;;;;;5053332;28;20049;-62
2024/01/23 10:53:24;;;;;;;;;;;8.10;99.90;;;;;;5051206;28;20442;-62
2024/01/23 10:55:53;;;;;;;26.95;4.28;;;8.00;99.90;;;;;;5053974;28;19943;-62
2024/01/23 10:58:31;;;;;;;27.95;4.72;;;8.10;99.90;;;;;;5053970;28;20303;-64
2024/01/23 11:00:59;;;;;;;19.75;4.47;;;8.10;99.90;;;;;;5047766;28;20043;-63
2024/01/23 11:03:25;;;;;;;22.63;4.80;;;8.10;99.90;;;;;;5049113;28;20144;-64
2024/01/23 11:06:03;;;;;;;26.55;5.22;;;8.10;99.90;;;;;;5045441;28;20073;-63
2024/01/23 11:08:42;;;;;;;28.35;4.45;;;8.20;99.90;;;;;;5055127;28;20056;-63
2024/01/23 11:11:22;;;;;;;28.30;5.20;;;8.20;99.90;;;;;;5049537;28;20119;-64
2024/01/23 11:13:59;;;;;;;24.88;4.60;;;8.30;99.90;;;;;;5054974;28;20032;-64
2024/01/23 11:16:24;;;;;;;24.10;4.30;;;8.30;99.90;;;;;;5047777;28;20047;-64
2024/01/23 11:18:53;;;;;;;24.92;4.53;;;8.30;99.90;;;;;;5049296;28;20448;-64
2024/01/23 11:21:22;;;;;;;23.25;4.90;;;8.30;99.90;;;;;;5047315;28;20115;-63
2024/01/23 11:23:58;;;;;;;29.70;5.13;;;8.40;99.90;;;;;;5037084;28;20037;-64
2024/01/23 11:26:26;;;;;;;31.13;5.70;;;8.40;99.90;;;;;;5038487;28;20061;-64
2024/01/23 11:28:54;;;;;;;29.17;5.18;;;8.40;99.90;;;;;;5034997;28;20096;-64
2024/01/23 11:31:21;;;;;;;20.02;4.47;;;8.50;99.90;;;;;;5033573;28;20516;-64
2024/01/23 11:33:47;;;;;;;27.00;5.43;;;8.40;99.90;;;;;;5041868;28;20033;-64
2024/01/23 11:36:24;;;;;;;25.90;4.57;;;8.40;99.90;;;;;;5033873;28;20040;-64
2024/01/23 11:38:51;;;;;;;19.88;4.25;;;8.40;99.90;;;;;;5033152;28;20048;-64
2024/01/23 11:41:27;;;;;;;21.90;3.95;;;8.40;99.90;;;;;;5040939;28;20041;-64
2024/01/23 11:44:14;;;;;;;24.90;4.35;;;8.40;99.90;;;;;;5034102;28;20425;-64
2024/01/23 11:46:40;;;;;;;27.50;4.25;;;8.40;99.90;;;;;;5033203;28;20037;-65
2024/01/23 11:49:07;;;;;;;29.70;5.63;;;8.40;99.90;;;;;;5041949;28;20033;-64
2024/01/23 11:51:37;;;;;;;34.15;6.88;;;8.40;99.90;;;;;;5033316;28;20040;-64
2024/01/23 11:54:09;;;;;;;26.77;4.35;;;8.40;99.90;;;;;;5036140;28;20501;-64
2024/01/23 11:56:36;;;;;;;24.63;4.22;;;8.40;99.90;;;;;;5034637;28;20099;-64
2024/01/23 11:59:02;;;;;;;22.05;4.53;;;8.40;99.90;;;;;;5033246;28;20034;-64
2024/01/23 12:01:29;;;;;;;22.20;3.92;;;8.40;99.90;;;;;;5038835;28;20036;-64
2024/01/23 12:03:56;;;;;;;32.03;5.47;;;8.40;99.90;;;;;;5034689;28;20087;-64
2024/01/23 12:06:22;;;;;;;24.45;4.88;;;8.40;99.90;;;;;;5033753;28;20037;-64
2024/01/23 12:08:48;;;;;;;19.20;4.30;;;8.40;99.90;;;;;;5036261;28;20460;-64
2024/01/23 12:11:15;;;;;;;25.40;5.05;;;8.50;99.90;;;;;;5031742;28;20133;-64
2024/01/23 12:13:44;;;;;;;24.70;4.20;;;8.50;99.90;;;;;;5045186;28;20036;-64
2024/01/23 12:16:10;;;;;;;32.75;5.20;;;8.50;99.90;;;;;;5031926;28;20037;-64
2024/01/23 12:18:36;;;;;;;22.98;4.30;;;8.40;99.90;;;;;;5041965;28;20052;-64
2024/01/23 12:21:04;;;;;;;20.35;3.85;;;8.40;99.90;;;;;;5037699;28;20183;-64
2024/01/23 12:23:30;;;;;;;28.38;4.72;;;8.30;99.90;;;;;;5032465;28;20052;-64
2024/01/23 12:25:57;;;;;;;33.53;10.10;;;8.20;99.90;;;;;;5037357;28;20049;-64
2024/01/23 12:28:23;;;;;;;30.63;5.22;;;8.30;99.90;;;;;;5026415;28;20048;-63
2024/01/23 12:30:49;;;;;;;26.85;4.82;;;8.30;99.90;;;;;;5031033;28;20575;-64
2024/01/23 12:33:16;;;;;;;26.15;4.90;;;8.40;99.90;;;;;;5031348;28;20061;-64
2024/01/23 12:35:46;;;;;;;24.58;4.47;;;8.50;99.90;;;;;;5038285;28;20032;-64
2024/01/23 12:38:19;;;;;;;28.37;5.17;;;8.50;99.90;;;;;;5036711;28;20039;-64
2024/01/23 12:40:46;;;;;;;22.58;4.13;;;8.60;99.90;;;;;;5018840;28;20053;-64
2024/01/23 12:43:13;;;;;;;30.13;4.80;;;8.80;99.90;;;;;;5030237;28;20062;-64
2024/01/23 12:45:38;;;;;;;28.20;4.95;;;8.80;99.90;;;;;;5031417;28;20400;-64
2024/01/23 12:48:10;;;;;;;22.42;4.30;;;8.90;99.90;;;;;;5030701;28;20037;-64
2024/01/23 12:50:37;;;;;;;23.48;4.57;;;8.90;99.90;;;;;;5034832;28;20531;-64
2024/01/23 12:53:03;;;;;;;21.45;4.35;;;9.00;99.90;;;;;;5032250;28;20037;-64
2024/01/23 12:55:32;;;;;;;21.98;4.03;;;9.10;99.90;;;;;;5031785;28;20067;-64
2024/01/23 12:57:59;;;;;;;23.90;4.55;;;9.10;99.90;;;;;;5031500;28;20072;-64
2024/01/23 13:00:25;;;;;;;20.83;3.83;;;9.00;99.90;;;;;;5033627;28;20041;-64
2024/01/23 13:02:52;;;;;;;21.98;3.63;;;9.00;99.90;;;;;;5018787;28;20050;-64
2024/01/23 13:05:18;;;;;;;23.30;4.55;;;8.90;99.90;;;;;;5001091;28;20191;-64
2024/01/23 13:07:48;;;;;;;24.23;4.35;;;8.90;99.90;;;;;;5005984;28;20037;-65
2024/01/23 13:10:15;;;;;;;19.60;4.45;;;8.80;99.90;;;;;;5031673;28;20417;-65
2024/01/23 13:12:42;;;;;;;21.83;4.20;;;8.80;99.90;;;;;;5032777;28;20041;-67
2024/01/23 13:15:08;;;;;;;25.30;4.20;;;8.70;99.90;;;;;;5039266;22;20041;-62
2024/01/23 13:17:34;;;;;;;24.60;4.47;;;8.80;99.90;;;;;;5000199;28;20049;-62
2024/01/23 13:20:00;;;;;;;26.67;4.22;;;8.70;99.90;;;;;;4986009;28;20050;-62
2024/01/23 13:22:26;;;;;;;26.25;4.30;;;8.70;99.90;;;;;;4990869;28;20048;-63
2024/01/23 13:24:51;;;;;;;24.88;5.25;;;8.70;99.90;;;;;;4992534;28;20454;-63
2024/01/23 13:27:17;;;;;;;19.50;4.05;;;8.60;99.90;;;;;;4996789;28;20052;-62
2024/01/23 13:29:44;;;;;;;27.48;4.32;;;8.60;99.90;;;;;;4987557;28;20065;-63
2024/01/23 13:32:11;;;;;;;25.98;4.47;;;8.60;99.90;;;;;;4978997;28;20034;-62
2024/01/23 13:34:37;;;;;;;17.83;4.13;;;8.50;99.90;;;;;;4980563;28;20545;-63
2024/01/23 13:37:04;;;;;;;24.83;4.18;;;8.50;99.90;;;;;;4997950;28;20435;-62
2024/01/23 13:39:30;;;;;;;26.75;4.90;;;8.50;99.90;;;;;;4982850;28;20034;-62
2024/01/23 13:41:59;;;;;;;23.60;4.18;;;8.50;99.90;;;;;;4965261;28;20066;-62
2024/01/23 13:44:25;;;;;;;28.75;4.57;;;8.40;99.90;;;;;;4984354;28;20038;-62
2024/01/23 13:46:51;;;;;;;26.40;5.30;;;8.40;99.90;;;;;;4991535;28;20034;-62
2024/01/23 13:49:18;;;;;;;21.80;4.75;;;8.40;99.90;;;;;;4988981;28;20485;-64
2024/01/23 13:51:43;;;;;;;22.33;3.53;;;8.40;99.90;;;;;;4994279;28;20460;-64
2024/01/23 13:54:09;;;;;;;22.35;4.35;;;8.30;99.90;;;;;;4979916;28;20122;-63
2024/01/23 13:56:35;;;;;;;24.48;4.40;;;8.30;99.90;;;;;;4989199;28;20034;-63
2024/01/23 13:59:04;;;;;;;21.35;4.88;;;8.30;99.90;;;;;;4992092;28;20066;-63
2024/01/23 14:01:34;;;;;;;17.75;4.10;;;8.30;99.90;;;;;;4976151;28;20126;-63
2024/01/23 14:04:03;;;;;;;20.10;5.13;;;8.20;99.90;;;;;;4990261;28;20046;-63
2024/01/23 14:06:29;;;;;;;24.83;5.05;;;8.20;99.90;;;;;;4992387;28;20046;-63
2024/01/23 14:08:56;;;;;;;19.92;3.53;;;8.20;99.90;;;;;;4995483;28;20037;-63
2024/01/23 14:11:22;;;;;;;19.48;4.18;;;8.20;99.90;;;;;;4996890;28;20070;-63
2024/01/23 14:13:48;;;;;;;25.13;4.43;;;8.20;99.90;;;;;;5003032;28;20037;-64
2024/01/23 14:16:15;;;;;;;19.52;4.38;;;8.20;99.90;;;;;;5007722;28;20049;-63
2024/01/23 14:18:41;;;;;;;17.88;4.38;;;8.20;99.90;;;;;;4974621;28;20039;-64
2024/01/23 14:21:08;;;;;;;18.85;4.63;;;8.10;99.90;;;;;;4989453;28;20092;-64
2024/01/23 14:23:34;;;;;;;24.13;4.47;;;8.10;99.90;;;;;;4985848;28;20132;-63
2024/01/23 14:26:01;;;;;;;20.77;4.22;;;8.10;99.90;;;;;;4992173;28;20519;-63
2024/01/23 14:28:27;;;;;;;24.65;4.50;;;8.10;99.90;;;;;;4984803;28;20042;-63
2024/01/23 14:30:53;;;;;;;23.40;4.20;;;8.10;99.90;;;;;;4991512;28;20500;-63
2024/01/23 14:33:18;;;;;;;21.48;3.63;;;8.10;99.90;;;;;;4991361;28;20479;-63
2024/01/23 14:35:44;;;;;;;18.80;3.90;;;8.10;99.90;;;;;;4987754;28;20031;-63
2024/01/23 14:38:11;;;;;;;20.02;5.63;;;8.10;99.90;;;;;;4986171;28;20096;-63
2024/01/23 14:40:38;;;;;;;21.80;4.10;;;8.10;99.90;;;;;;5001081;28;20050;-63
2024/01/23 14:43:03;;;;;;;23.05;5.22;;;8.10;99.90;;;;;;4985580;28;20066;-63
2024/01/23 14:45:30;;;;;;;27.08;3.60;;;8.10;99.90;;;;;;4998107;28;20442;-63
2024/01/23 14:47:57;;;;;;;18.67;3.70;;;8.10;99.90;;;;;;4983637;28;20653;-63
2024/01/23 14:50:22;;;;;;;22.00;3.80;;;8.10;99.90;;;;;;4987889;28;20502;-63
2024/01/23 14:52:48;;;;;;;18.98;4.43;;;8.10;99.90;;;;;;4981117;28;20036;-63
2024/01/23 14:55:14;;;;;;;25.13;4.43;;;8.10;99.90;;;;;;5002719;28;20043;-63
2024/01/23 14:57:41;;;;;;;25.80;4.53;;;8.10;99.90;;;;;;4989380;28;20030;-63
2024/01/23 15:00:09;;;;;;;22.80;4.28;;;8.10;99.90;;;;;;4988202;28;20506;-63
2024/01/23 15:02:36;;;;;;;20.27;4.05;;;8.10;99.90;;;;;;4994474;28;20069;-63
2024/01/23 15:05:03;;;;;;;25.95;4.38;;;8.00;99.90;;;;;;4989164;28;20046;-63
2024/01/23 15:07:29;;;;;;;20.83;4.45;;;8.00;99.90;;;;;;4997176;28;20398;-62
2024/01/23 15:09:55;;;;;;;18.58;4.22;;;8.00;99.90;;;;;;4990280;28;20092;-61
2024/01/23 15:12:21;;;;;;;21.33;4.20;;;8.00;99.90;;;;;;4994322;28;20042;-61
2024/01/23 15:14:46;;;;;;;19.63;3.85;;;8.00;99.90;;;;;;4993579;28;20096;-61
2024/01/23 15:17:12;;;;;;;22.73;4.28;;;8.00;99.90;;;;;;4993376;28;20038;-61
2024/01/23 15:19:38;;;;;;;17.67;4.28;;;8.00;99.90;;;;;;4992275;28;20600;-62
2024/01/23 15:22:03;;;;;;;28.58;4.53;;;7.90;99.90;;;;;;4987412;28;20524;-62
2024/01/23 15:24:29;;;;;;;19.10;4.18;;;7.90;99.90;;;;;;4993175;28;20309;-62
2024/01/23 15:26:55;;;;;;;24.40;4.38;;;8.00;99.90;;;;;;4992140;28;20034;-62
2024/01/23 15:29:20;;;;;;;18.55;4.20;;;7.90;99.90;;;;;;4992288;28;20038;-62
2024/01/23 15:31:46;;;;;;;21.10;4.00;;;7.90;99.90;;;;;;4986784;28;20050;-62
2024/01/23 15:34:12;;;;;;;20.23;3.58;;;7.90;99.90;;;;;;4988912;28;20032;-62
2024/01/23 15:36:38;;;;;;;26.85;5.20;;;7.90;99.90;;;;;;4992356;28;20027;-62
2024/01/23 15:39:06;;;;;;;25.63;5.68;;;7.80;99.90;;;;;;4992927;28;20402;-62
2024/01/23 15:41:32;;;;;;;26.83;3.60;;;7.80;99.90;;;;;;4991376;28;20050;-62
2024/01/23 15:43:59;;;;;;;22.67;4.47;;;7.80;99.90;;;;;;4994753;28;20097;-62
2024/01/23 15:46:25;;;;;;;21.60;3.67;;;7.80;99.90;;;;;;4991343;28;20042;-62
2024/01/23 15:48:52;;;;;;;23.10;5.22;;;7.80;99.90;;;;;;4993140;28;20038;-62
2024/01/23 15:51:17;;;;;;;20.92;5.32;;;7.70;99.90;;;;;;4991241;28;20043;-62
2024/01/23 15:53:43;;;;;;;25.48;4.80;;;7.60;99.90;;;;;;4992173;28;20125;-62
2024/01/23 15:56:13;;;;;;;21.02;4.63;;;7.60;99.90;;;;;;4992771;28;20042;-62
2024/01/23 15:58:42;;;;;;;26.10;4.40;;;7.60;99.90;;;;;;4991689;28;20045;-62
2024/01/23 16:01:07;;;;;;;22.00;4.80;;;7.60;99.90;;;;;;4990486;28;20088;-61
2024/01/23 16:03:34;;;;;;;27.77;3.97;;;7.60;99.90;;;;;;4989721;28;20050;-62
2024/01/23 16:06:00;;;;;;;19.40;4.90;;;7.60;99.90;;;;;;4982640;28;20038;-62
2024/01/23 16:08:26;;;;;;;20.77;4.28;;;7.50;99.90;;;;;;4990356;28;20129;-62
2024/01/23 16:10:51;;;;;;;25.00;4.30;;;7.50;99.90;;;;;;4987950;28;20045;-62
2024/01/23 16:13:17;;;;;;;23.77;4.75;;;7.50;99.90;;;;;;4993951;28;20301;-62
2024/01/23 16:15:43;;;;;;;27.48;4.78;;;7.50;99.90;;;;;;4989136;28;20053;-63
2024/01/23 16:18:08;;;;;;;24.08;4.60;;;7.50;99.90;;;;;;4986587;28;20034;-63
2024/01/23 16:20:34;;;;;;;27.90;5.45;;;7.40;99.90;;;;;;4989797;28;20038;-63
2024/01/23 16:23:00;;;;;;;18.42;4.15;;;7.40;99.90;;;;;;4985658;28;20157;-63
2024/01/23 16:25:27;;;;;;;24.45;4.45;;;7.30;99.90;;;;;;4984944;28;20494;-63
2024/01/23 16:27:52;;;;;;;25.45;4.60;;;7.30;99.90;;;;;;4991946;28;20042;-63
2024/01/23 16:30:19;;;;;;;22.38;4.00;;;7.40;99.90;;;;;;4992751;28;20526;-63
2024/01/23 16:32:45;;;;;;;19.17;3.92;;;7.30;99.90;;;;;;4992232;28;20046;-63
2024/01/23 16:35:11;;;;;;;32.13;5.18;;;7.30;99.90;;;;;;4988295;28;20044;-63
2024/01/23 16:37:37;;;;;;;28.58;4.68;;;7.30;99.90;;;;;;4983506;28;20126;-63
2024/01/23 16:40:07;;;;;;;27.42;5.05;;;7.30;99.90;;;;;;4973848;28;20048;-63
2024/01/23 16:42:33;;;;;;;30.10;6.03;;;7.30;99.90;;;;;;4987599;28;20042;-63
2024/01/23 16:44:58;;;;;;;22.13;4.75;;;7.30;99.90;;;;;;4990872;28;20453;-63
2024/01/23 16:47:24;;;;;;;26.02;5.63;;;7.30;99.90;;;;;;4991526;28;20061;-62
2024/01/23 16:49:49;;;;;;;21.70;4.50;;;7.30;99.90;;;;;;4988864;28;20403;-62
2024/01/23 16:52:15;;;;;;;30.15;6.05;;;7.30;99.90;;;;;;4989966;28;20068;-62
2024/01/23 16:54:41;;;;;;;30.33;6.47;;;7.30;99.90;;;;;;4991675;28;20445;-62
2024/01/23 16:57:06;;;;;;;24.17;4.65;;;7.30;99.90;;;;;;4992663;28;20042;-62
2024/01/23 16:59:32;;;;;;;22.73;5.30;;;7.30;99.90;;;;;;4990303;28;20073;-62
2024/01/23 17:02:04;;;;;;;26.30;5.72;;;7.40;99.90;;;;;;4992462;28;20070;-62
2024/01/23 17:04:29;;;;;;;29.20;5.90;;;7.40;99.90;;;;;;4990895;28;20057;-62
2024/01/23 17:06:55;;;;;;;25.30;5.28;;;7.40;99.90;;;;;;4992222;28;20411;-62
2024/01/23 17:09:21;;;;;;;25.67;5.57;;;7.30;99.90;;;;;;4992435;28;20116;-62
2024/01/23 17:11:46;;;;;;;26.17;5.32;;;7.40;99.90;;;;;;4991759;28;20510;-63
2024/01/23 17:14:12;;;;;;;20.33;5.25;;;7.40;99.90;;;;;;4991431;28;20445;-63
2024/01/23 17:16:38;;;;;;;27.98;5.95;;;7.40;99.90;;;;;;4991557;28;20391;-63
2024/01/23 17:19:03;;;;;;;18.25;5.78;;;7.40;99.90;;;;;;4993345;28;20033;-62
2024/01/23 17:21:29;;;;;;;27.42;6.18;;;7.50;99.90;;;;;;4994617;28;20060;-62
2024/01/23 17:23:55;;;;;;;25.98;5.82;;;7.50;99.90;;;;;;4992622;28;20510;-62
2024/01/23 17:26:21;;;;;;;27.30;6.10;;;7.50;99.90;;;;;;4990336;28;20100;-63
2024/01/23 17:28:46;;;;;;;28.25;6.22;;;7.50;99.90;;;;;;4984223;28;20038;-63
2024/01/23 17:31:12;;;;;;;22.38;5.38;;;7.50;99.90;;;;;;4986379;28;20518;-62
2024/01/23 17:33:38;;;;;;;27.85;5.78;;;7.50;99.90;;;;;;4990325;28;20038;-62
2024/01/23 17:36:04;;;;;;;25.08;6.10;;;7.60;99.90;;;;;;4991138;28;20427;-62
2024/01/23 17:38:29;;;;;;;33.00;5.90;;;7.50;99.90;;;;;;4992019;28;20089;-62
2024/01/23 17:40:55;;;;;;;20.17;5.80;;;7.50;99.90;;;;;;4980365;28;20573;-62
2024/01/23 17:43:20;;;;;;;24.52;6.18;;;7.60;99.90;;;;;;4987579;28;20045;-63
2024/01/23 17:45:46;;;;;;;25.20;5.82;;;7.50;99.90;;;;;;4971047;28;20057;-63
2024/01/23 17:48:12;;;;;;;13.73;4.60;;;7.60;99.90;;;;;;4977081;28;20068;-62
2024/01/23 17:50:38;;;;;;;22.88;5.38;;;7.60;99.90;;;;;;4981860;28;20469;-62
2024/01/23 17:53:03;;;;;;;19.65;5.65;;;7.60;99.90;;;;;;4996404;28;20514;-63
2024/01/23 17:55:29;;;;;;;15.88;5.00;;;7.60;99.90;;;;;;4989119;28;20042;-62
2024/01/23 17:57:54;;;;;;;17.92;4.97;;;7.70;99.90;;;;;;4976742;28;20102;-63
2024/01/23 18:00:25;;;;;;;21.65;5.13;;;7.60;99.90;;;;;;4979888;28;20153;-63
2024/01/23 18:02:51;;;;;;;19.88;4.97;;;7.60;99.90;;;;;;4987911;28;20053;-62
2024/01/23 18:05:17;;;;;;;15.25;4.35;;;7.60;99.90;;;;;;4986353;28;20506;-63
2024/01/23 18:07:42;;;;;;;15.52;4.50;;;7.70;99.90;;;;;;4988048;28;20041;-63
2024/01/23 18:10:09;;;;;;;17.67;5.57;;;7.60;99.90;;;;;;4980709;28;20046;-63
2024/01/23 18:12:34;;;;;;;12.45;4.70;;;7.70;99.90;;;;;;4995372;28;20057;-63
2024/01/23 18:15:03;;;;;;;17.77;6.03;;;7.70;99.90;;;;;;4986651;28;20030;-64
2024/01/23 18:17:29;;;;;;;21.35;7.13;;;7.70;99.90;;;;;;4986814;28;20042;-64
2024/01/23 18:19:55;;;;;;;16.40;4.65;;;7.70;99.90;;;;;;4987197;28;20517;-64
2024/01/23 18:22:24;;;;;;;20.75;5.28;;;7.70;99.90;;;;;;4986277;28;20038;-64
2024/01/23 18:24:54;;;;;;;13.90;4.57;;;7.70;99.90;;;;;;4982063;28;20038;-64
2024/01/23 18:27:20;;;;;;;18.45;5.45;;;7.70;99.90;;;;;;4982825;28;20077;-64
2024/01/23 18:29:46;;;;;;;15.57;4.70;;;7.70;99.90;;;;;;4982744;28;20574;-64
2024/01/23 18:32:13;;;;;;;17.17;4.97;;;7.70;99.90;;;;;;4982223;28;20440;-64
2024/01/23 18:34:39;;;;;;;10.95;4.22;;;7.70;99.90;;;;;;4986131;28;20487;-62
2024/01/23 18:37:05;;;;;;;13.23;4.20;;;7.70;99.90;;;;;;4985511;28;20538;-62
2024/01/23 18:39:30;;;;;;;11.75;4.07;;;7.70;99.90;;;;;;4984196;28;20078;-62
2024/01/23 18:41:56;;;;;;;11.02;4.45;;;7.80;99.90;;;;;;4985066;28;20077;-63
2024/01/23 18:44:23;;;;;;;12.57;4.45;;;7.80;99.90;;;;;;4984814;28;20046;-62
2024/01/23 18:46:49;;;;;;;12.45;4.50;;;7.80;99.90;;;;;;4992296;28;20069;-62
2024/01/23 18:49:16;;;;;;;11.68;4.68;;;7.80;99.90;;;;;;4994875;28;20077;-62
2024/01/23 18:51:42;;;;;;;11.18;3.60;;;7.90;99.90;;;;;;4994972;28;20049;-62
2024/01/23 18:54:07;;;;;;;12.93;5.47;;;7.80;99.90;;;;;;4982984;28;20038;-63
2024/01/23 18:56:33;;;;;;;15.13;4.25;;;7.90;99.90;;;;;;4994017;28;20038;-63
2024/01/23 18:58:59;;;;;;;11.80;4.20;;;7.90;99.90;;;;;;4993964;28;20038;-62
2024/01/23 19:01:24;;;;;;;9.73;3.97;;;7.90;99.90;;;;;;4987106;28;20039;-62
2024/01/23 19:03:51;;;;;;;9.75;4.53;;;7.90;99.90;;;;;;4993551;28;20121;-62
2024/01/23 19:06:16;;;;;;;8.98;3.67;;;7.90;99.90;;;;;;4993126;28;20372;-63
2024/01/23 19:08:44;;;;;;;10.48;3.50;;;7.90;99.90;;;;;;4983958;28;20177;-63
2024/01/23 19:11:10;;;;;;;10.52;4.13;;;8.00;99.90;;;;;;4990523;28;20039;-63
2024/01/23 19:13:36;;;;;;;11.52;4.63;;;8.00;99.90;;;;;;4978978;28;20043;-63
2024/01/23 19:16:02;;;;;;;10.45;3.45;;;8.00;99.90;;;;;;4993405;28;20034;-63
2024/01/23 19:18:29;;;;;;;5.57;3.17;;;8.10;99.90;;;;;;4994562;28;20407;-63
2024/01/23 19:20:55;;;;;;;10.00;3.33;;;8.00;99.90;;;;;;4994362;28;20055;-63
2024/01/23 19:23:20;;;;;;;9.18;3.50;;;8.10;99.90;;;;;;4990852;28;20034;-63
2024/01/23 19:25:46;;;;;;;10.65;3.90;;;8.10;99.90;;;;;;4991549;28;20042;-63
2024/01/23 19:28:12;;;;;;;9.10;3.10;;;8.00;99.90;;;;;;4996118;28;20499;-63
2024/01/23 19:30:37;;;;;;;6.38;3.85;;;8.10;99.90;;;;;;4987091;28;20044;-63
2024/01/23 19:33:04;;;;;;;11.80;4.18;;;8.00;99.90;;;;;;4989417;28;20058;-63
2024/01/23 19:35:30;;;;;;;9.98;4.00;;;8.00;99.90;;;;;;4980932;28;20111;-63
2024/01/23 19:37:56;;;;;;;6.30;3.20;;;8.10;99.90;;;;;;4973916;28;20082;-63
2024/01/23 19:40:22;;;;;;;8.10;3.72;;;8.10;99.90;;;;;;4987184;28;20131;-63
2024/01/23 19:42:49;;;;;;;10.88;3.42;;;8.10;99.90;;;;;;4987959;28;22403;-63
2024/01/23 19:45:15;;;;;;;8.05;3.88;;;8.10;99.90;;;;;;4981673;28;20116;-63
2024/01/23 19:47:42;;;;;;;11.68;4.45;;;8.10;99.90;;;;;;4981936;28;20093;-63
2024/01/23 19:50:08;;;;;;;7.07;3.55;;;8.10;99.90;;;;;;4984769;28;20407;-63
2024/01/23 19:52:34;;;;;;;9.50;4.18;;;8.10;99.90;;;;;;4981448;28;20040;-63
2024/01/23 19:54:59;;;;;;;8.85;4.50;;;8.20;99.90;;;;;;4991284;28;20039;-63
2024/01/23 19:57:25;;;;;;;8.13;3.40;;;8.20;99.90;;;;;;4985768;28;20114;-63
2024/01/23 19:59:51;;;;;;;8.23;3.47;;;8.20;99.90;;;;;;4971738;28;20073;-63
2024/01/23 20:02:17;;;;;;;11.07;4.72;;;8.20;99.90;;;;;;4985609;28;20035;-63
2024/01/23 20:04:42;;;;;;;7.00;3.67;;;8.20;99.90;;;;;;4987154;28;20050;-63
2024/01/23 20:07:09;;;;;;;8.60;3.92;;;8.30;99.90;;;;;;4985063;28;20035;-63
2024/01/23 20:09:39;;;;;;;9.23;4.55;;;8.30;99.90;;;;;;4983175;28;20042;-63
2024/01/23 20:12:09;;;;;;;11.55;5.07;;;8.30;99.90;;;;;;4989209;28;20039;-63
2024/01/23 20:14:37;;;;;;;9.25;4.70;;;8.40;99.90;;;;;;4982995;28;20538;-63
2024/01/23 20:17:03;;;;;;;7.22;5.30;;;8.40;99.90;;;;;;4981895;28;20035;-63
2024/01/23 20:19:32;;;;;;;8.43;5.20;;;8.40;99.90;;;;;;4981193;28;20058;-63
2024/01/23 20:21:59;;;;;;;15.65;9.48;;;8.50;99.90;;;;;;4988015;28;20077;-63
2024/01/23 20:24:25;;;;;;;17.35;12.95;;;8.60;99.90;;;;;;4984549;28;20046;-64
2024/01/23 20:26:50;;;;;;;9.90;6.40;;;8.50;99.90;;;;;;4988196;28;20100;-63
2024/01/23 20:29:16;;;;;;;6.63;4.95;;;8.60;99.90;;;;;;4983466;28;20074;-63
2024/01/23 20:31:42;;;;;;;10.20;5.32;;;8.60;99.90;;;;;;4983225;28;20081;-64
2024/01/23 20:34:07;;;;;;;11.02;6.07;;;8.70;99.90;;;;;;4991653;28;20113;-64
2024/01/23 20:36:33;;;;;;;8.85;4.88;;;8.70;99.90;;;;;;4989333;28;20176;-64
2024/01/23 20:38:59;;;;;;;10.18;5.32;;;8.70;99.90;;;;;;4990738;28;20045;-63
2024/01/23 20:41:25;;;;;;;8.93;4.70;;;8.70;99.90;;;;;;4983905;28;20182;-64
2024/01/23 20:43:51;;;;;;;10.55;5.32;;;8.80;99.90;;;;;;4982138;28;20046;-63
2024/01/23 20:46:19;;;;;;;7.13;5.18;;;8.80;99.90;;;;;;4983881;28;20038;-63
2024/01/23 20:48:45;;;;;;;10.30;5.97;;;8.80;99.90;;;;;;4986308;28;20038;-63
2024/01/23 20:51:11;;;;;;;9.55;5.22;;;8.90;99.90;;;;;;4982360;28;20406;-63
2024/01/23 20:53:36;;;;;;;8.93;5.80;;;8.90;99.90;;;;;;4984360;28;20038;-63
2024/01/23 20:56:03;;;;;;;7.80;5.40;;;9.00;99.90;;;;;;4983026;28;20137;-63
2024/01/23 20:58:28;;;;;;;8.50;4.55;;;9.10;99.90;;;;;;4981244;28;20049;-63
2024/01/23 21:00:54;;;;;;;9.90;6.40;;;9.10;99.90;;;;;;4982357;28;20034;-63
2024/01/23 21:03:20;;;;;;;9.63;6.40;;;9.10;99.90;;;;;;4986708;28;20157;-63
2024/01/23 21:05:46;;;;;;;11.23;7.43;;;9.20;99.90;;;;;;4983534;28;20042;-63
2024/01/23 21:08:11;;;;;;;12.40;8.35;;;9.20;99.90;;;;;;4987663;28;20112;-63
2024/01/23 21:10:37;;;;;;;9.93;7.03;;;9.20;99.90;;;;;;4987012;28;20133;-63
2024/01/23 21:13:04;;;;;;;11.27;6.60;;;9.30;99.90;;;;;;4987483;28;20070;-63
2024/01/23 21:15:32;;;;;;;9.38;6.22;;;9.30;99.90;;;;;;4971555;28;20198;-63
2024/01/23 21:17:58;;;;;;;9.05;5.78;;;9.40;99.90;;;;;;4985297;28;20049;-63
2024/01/23 21:20:24;;;;;;;10.88;7.57;;;9.40;99.90;;;;;;4985422;28;20209;-63
2024/01/23 21:22:50;;;;;;;13.23;9.15;;;9.40;99.90;;;;;;4981644;28;20060;-63
2024/01/23 21:25:16;;;;;;;11.88;6.68;;;9.50;99.90;;;;;;4985523;28;20569;-63
2024/01/23 21:27:43;;;;;;;13.15;7.68;;;9.60;99.90;;;;;;4983315;28;20086;-64
2024/01/23 21:30:09;;;;;;;12.60;7.00;;;9.50;99.90;;;;;;4987883;28;20046;-64
2024/01/23 21:32:35;;;;;;;11.45;6.82;;;9.70;99.90;;;;;;4983941;28;20038;-64
2024/01/23 21:35:01;;;;;;;11.82;6.28;;;9.70;99.90;;;;;;4985636;28;20412;-64
2024/01/23 21:37:27;;;;;;;11.20;6.25;;;9.80;99.90;;;;;;4986694;28;20030;-64
2024/01/23 21:39:52;;;;;;;8.45;5.72;;;9.80;99.90;;;;;;4985311;28;20465;-64
2024/01/23 21:42:18;;;;;;;9.38;6.00;;;9.90;99.90;;;;;;4980417;28;20031;-64
2024/01/23 21:44:43;;;;;;;10.82;6.30;;;9.90;99.90;;;;;;4988256;28;20078;-63
2024/01/23 21:47:09;;;;;;;8.75;5.72;;;9.90;99.90;;;;;;4989077;28;20034;-63
2024/01/23 21:49:35;;;;;;;11.40;6.50;;;10.00;99.90;;;;;;4991403;28;20221;-63
2024/01/23 21:52:01;;;;;;;13.73;7.20;;;10.10;99.90;;;;;;4979885;28;20394;-64
2024/01/23 21:54:26;;;;;;;12.57;6.65;;;10.00;99.90;;;;;;4991273;28;20037;-63
2024/01/23 21:56:52;;;;;;;12.75;7.05;;;10.10;99.90;;;;;;4988057;28;20045;-64
2024/01/23 21:59:18;;;;;;;11.00;5.85;;;10.10;99.90;;;;;;4983381;28;20035;-63
2024/01/23 22:01:45;;;;;;;13.18;7.70;;;10.10;99.90;;;;;;4986755;28;20775;-63
2024/01/23 22:04:11;;;;;;;12.88;6.80;;;10.20;99.90;;;;;;4989629;28;20047;-63
2024/01/23 22:06:36;;;;;;;13.55;7.55;;;10.20;99.90;;;;;;4985909;28;20044;-63
2024/01/23 22:09:05;;;;;;;14.20;7.80;;;10.20;99.90;;;;;;4989228;28;20081;-63
2024/01/23 22:11:31;;;;;;;17.33;7.90;;;10.20;99.90;;;;;;4984992;28;20135;-63
2024/01/23 22:13:56;;;;;;;13.02;6.63;;;10.30;99.90;;;;;;4976206;28;20109;-63
2024/01/23 22:16:22;;;;;;;12.20;7.78;;;10.30;99.90;;;;;;4988011;28;20509;-63
2024/01/23 22:18:48;;;;;;;14.10;8.15;;;10.30;99.90;;;;;;4987030;28;20046;-63
2024/01/23 22:21:14;;;;;;;13.45;7.22;;;10.30;99.90;;;;;;4985683;28;20101;-63
2024/01/23 22:23:39;;;;;;;13.35;8.35;;;10.40;99.90;;;;;;4981181;28;20141;-63
2024/01/23 22:26:05;;;;;;;16.60;8.35;;;10.50;99.90;;;;;;4988494;28;20780;-62
2024/01/23 22:28:31;;;;;;;14.95;8.02;;;10.50;99.90;;;;;;4984316;28;20471;-63
2024/01/23 22:30:56;;;;;;;14.32;8.40;;;10.50;99.90;;;;;;4982919;28;20042;-62
2024/01/23 22:33:24;;;;;;;15.43;8.70;;;10.60;99.90;;;;;;4989330;28;20442;-62
2024/01/23 22:35:49;;;;;;;16.48;10.52;;;10.60;99.90;;;;;;4986909;28;20379;-63
2024/01/23 22:38:16;;;;;;;43.95;27.27;;;10.60;99.90;;;;;;4990422;28;20038;-62
2024/01/23 22:40:41;;;;;;;15.30;9.20;;;10.70;99.90;;;;;;4983626;28;20493;-62
2024/01/23 22:43:07;;;;;;;19.77;9.15;;;10.80;99.90;;;;;;4991126;28;20118;-63
2024/01/23 22:45:47;;;;;;;13.90;9.25;;;10.80;99.90;;;;;;4984608;28;20481;-63
2024/01/23 22:48:13;;;;;;;12.32;7.47;;;10.80;99.90;;;;;;4982253;28;20057;-63
2024/01/23 22:50:39;;;;;;;17.63;8.27;;;10.80;99.90;;;;;;4981445;28;20084;-63
2024/01/23 22:53:05;;;;;;;17.77;8.77;;;10.90;99.90;;;;;;4988705;28;20041;-62
2024/01/23 22:55:31;;;;;;;16.65;8.82;;;10.90;99.90;;;;;;4980855;28;20462;-63